Time;durP1;ratioP1;P1;durP2;ratioP2;P2;SDS_P1;SDS_P2;PMS_P1;PMS_P2;Temp;Humidity;BMP_temperature;BMP_pressure;BME280_temperature;BME280_humidity;BME280_pressure;Samples;Min_cycle;Max_cycle;Signal;HPM_P1;HPM_P2
2023/08/13 00:37:20;;;;;;;14.60;5.95;;;20.70;99.60;;;;;;4871856;29;20104;-95
2023/08/13 00:40:42;;;;;;;;;;;;;;;;;;;;;
2023/08/13 02:23:54;;;;;;;7.07;5.03;;;20.50;99.80;;;;;;4876708;29;20035;-95
2023/08/13 02:44:19;;;;;;;7.75;4.68;;;20.50;99.80;;;;;;4973329;28;20083;-96
2023/08/13 02:50:43;;;;;;;9.20;5.28;;;20.50;99.80;;;;;;5020659;28;20516;-95
2023/08/13 02:57:07;;;;;;;;;;;;;;;;;;;;;
2023/08/13 03:17:55;;;;;;;;;;;;;;;;;;;;;
2023/08/13 04:11:46;;;;;;;10.85;7.50;;;20.40;99.90;;;;;;4894113;29;20160;-94
2023/08/13 04:14:11;;;;;;;13.77;7.47;;;20.50;99.90;;;;;;4930639;29;20043;-93
2023/08/13 04:16:40;;;;;;;16.65;7.28;;;20.40;99.90;;;;;;4942984;29;20039;-93
2023/08/13 04:36:44;;;;;;;12.60;7.35;;;20.40;99.90;;;;;;5063020;28;20020;-92
2023/08/13 04:43:09;;;;;;;10.75;6.68;;;20.40;99.90;;;;;;5003483;28;20057;-95
2023/08/13 04:45:35;;;;;;;10.77;7.40;;;20.40;99.90;;;;;;4998229;28;20034;-96
2023/08/13 04:48:03;;;;;;;10.15;7.10;;;20.40;99.90;;;;;;4981715;28;20160;-90
2023/08/13 04:50:54;;;;;;;10.23;7.40;;;20.40;99.90;;;;;;5003929;28;20034;-93
2023/08/13 04:53:20;;;;;;;12.77;7.20;;;20.40;99.90;;;;;;4914321;29;20039;-93
2023/08/13 04:56:23;;;;;;;;;;;;;;;;;;;;;
2023/08/13 05:05:43;;;;;;;15.20;6.93;;;20.40;99.90;;;;;;4934597;29;20027;-93
2023/08/13 05:09:25;;;;;;;;;;;;;;;;;;;;;
2023/08/13 05:16:45;;;;;;;9.25;5.75;;;20.40;99.90;;;;;;4834343;29;20079;-95
2023/08/13 06:19:09;;;;;;;;;;;;;;;;;;;;;
2023/08/13 06:29:19;;;;;;;11.02;6.93;;;20.60;99.90;;;;;;4951233;29;20092;-95
2023/08/13 06:35:28;;;;;;;12.40;6.38;;;20.30;99.90;;;;;;4990754;28;20423;-96
2023/08/13 06:38:09;;;;;;;8.85;5.55;;;20.40;99.90;;;;;;4982938;28;20353;-95
2023/08/13 06:45:09;;;;;;;10.38;4.82;;;20.40;99.90;;;;;;4964536;28;20042;-96
2023/08/13 06:47:44;;;;;;;7.43;4.70;;;20.40;99.90;;;;;;4932494;29;20036;-96
2023/08/13 06:50:10;;;;;;;9.77;5.03;;;20.40;99.90;;;;;;4932607;28;20028;-92
2023/08/13 06:52:36;;;;;;;10.45;5.00;;;20.40;99.90;;;;;;4933414;29;20136;-92
2023/08/13 06:55:01;;;;;;;6.60;4.70;;;20.40;99.90;;;;;;4910038;29;20417;-93
2023/08/13 06:57:27;;;;;;;7.50;5.55;;;20.40;99.90;;;;;;4920223;29;20153;-92
2023/08/13 06:59:52;;;;;;;9.40;5.68;;;20.40;99.90;;;;;;4924205;29;20493;-91
2023/08/13 07:02:18;;;;;;;12.00;6.40;;;20.40;99.90;;;;;;4914954;29;20035;-91
2023/08/13 07:04:44;;;;;;;9.20;6.15;;;20.40;99.90;;;;;;4895187;29;20032;-93
2023/08/13 07:07:09;;;;;;;9.68;5.72;;;20.40;99.90;;;;;;4900868;29;20041;-94
2023/08/13 07:09:35;;;;;;;10.95;7.15;;;20.40;99.90;;;;;;4905850;29;20224;-93
2023/08/13 07:12:01;;;;;;;14.10;7.28;;;20.40;99.90;;;;;;4888999;29;20044;-94
2023/08/13 07:14:26;;;;;;;16.80;8.50;;;20.40;99.90;;;;;;4912803;29;20047;-94
2023/08/13 07:16:52;;;;;;;13.77;8.95;;;20.40;99.90;;;;;;4896166;29;20036;-94
2023/08/13 07:19:27;;;;;;;19.30;9.93;;;20.40;99.90;;;;;;4901262;28;20397;-93
2023/08/13 07:21:53;;;;;;;16.15;9.65;;;20.40;99.90;;;;;;4962011;28;20050;-95
2023/08/13 07:24:18;;;;;;;17.25;11.07;;;20.40;99.90;;;;;;4988705;28;20438;-93
2023/08/13 07:26:44;;;;;;;18.05;10.55;;;20.40;99.90;;;;;;5049038;28;20021;-94
2023/08/13 07:29:10;;;;;;;14.07;9.85;;;20.40;99.90;;;;;;5025413;28;20389;-93
2023/08/13 07:31:36;;;;;;;21.35;12.00;;;20.40;99.90;;;;;;5030716;28;20075;-83
2023/08/13 07:34:01;;;;;;;22.95;14.40;;;20.40;99.90;;;;;;5045564;28;20029;-87
2023/08/13 07:36:28;;;;;;;23.88;12.90;;;20.50;99.90;;;;;;5043398;28;20025;-84
2023/08/13 07:38:53;;;;;;;20.30;13.20;;;20.50;99.90;;;;;;5048059;28;20017;-91
2023/08/13 07:41:19;;;;;;;25.58;13.13;;;20.60;99.90;;;;;;5029282;28;20560;-88
2023/08/13 07:43:44;;;;;;;34.95;15.15;;;20.60;99.90;;;;;;5050425;28;20021;-85
2023/08/13 07:46:13;;;;;;;25.27;14.80;;;20.60;99.90;;;;;;5044534;28;20025;-91
2023/08/13 07:48:39;;;;;;;26.70;13.05;;;20.70;99.90;;;;;;5048091;28;20020;-85
2023/08/13 07:51:04;;;;;;;20.98;12.57;;;20.70;99.90;;;;;;5044264;28;20448;-87
2023/08/13 07:53:31;;;;;;;15.07;9.05;;;20.70;99.90;;;;;;5028818;28;20493;-89
2023/08/13 07:55:57;;;;;;;14.48;8.30;;;20.70;99.90;;;;;;5036728;28;20017;-85
2023/08/13 07:58:22;;;;;;;15.55;8.35;;;20.70;99.90;;;;;;5040265;28;20025;-89
2023/08/13 08:00:48;;;;;;;14.02;8.02;;;20.80;99.90;;;;;;5048613;28;20028;-88
2023/08/13 08:03:14;;;;;;;20.73;10.73;;;20.80;99.90;;;;;;5063490;28;20057;-86
2023/08/13 08:05:41;;;;;;;15.07;8.68;;;20.80;99.90;;;;;;5051025;28;20104;-86
2023/08/13 08:08:06;;;;;;;21.50;11.10;;;20.80;99.90;;;;;;5035767;28;20021;-85
2023/08/13 08:10:32;;;;;;;20.88;11.38;;;20.80;99.90;;;;;;5028804;28;20021;-86
2023/08/13 08:12:58;;;;;;;14.25;8.77;;;20.80;99.90;;;;;;5029819;28;20032;-87
2023/08/13 08:15:25;;;;;;;17.00;9.75;;;20.80;99.90;;;;;;5060847;28;20465;-83
2023/08/13 08:17:50;;;;;;;18.42;10.60;;;20.80;99.90;;;;;;5047936;28;20025;-86
2023/08/13 08:20:16;;;;;;;17.45;10.60;;;20.80;99.90;;;;;;5030706;28;20033;-86
2023/08/13 08:22:42;;;;;;;14.15;8.63;;;20.90;99.90;;;;;;5031445;28;20025;-86
2023/08/13 08:25:09;;;;;;;17.55;9.93;;;20.90;99.90;;;;;;5031246;28;20049;-85
2023/08/13 08:27:36;;;;;;;20.95;8.88;;;20.90;99.90;;;;;;5027557;28;20025;-84
2023/08/13 08:30:02;;;;;;;17.85;8.32;;;20.90;99.90;;;;;;5023861;28;20397;-86
2023/08/13 08:32:29;;;;;;;12.07;7.32;;;20.90;99.90;;;;;;5047017;28;20064;-85
2023/08/13 08:34:55;;;;;;;11.30;7.20;;;20.90;99.90;;;;;;5030059;28;20029;-86
2023/08/13 08:37:21;;;;;;;11.05;5.22;;;20.90;99.90;;;;;;5046823;28;20470;-85
2023/08/13 08:39:46;;;;;;;12.98;6.30;;;20.90;99.90;;;;;;5051467;28;20389;-84
2023/08/13 08:42:12;;;;;;;8.48;4.75;;;20.90;99.90;;;;;;5043956;28;20017;-85
2023/08/13 08:44:44;;;;;;;9.20;5.35;;;20.80;99.90;;;;;;5045093;28;20079;-86
2023/08/13 08:47:10;;;;;;;8.68;5.47;;;20.90;99.90;;;;;;5044445;28;20025;-86
2023/08/13 08:49:39;;;;;;;9.07;5.07;;;20.90;99.90;;;;;;5045503;28;20017;-84
2023/08/13 08:52:06;;;;;;;9.57;4.82;;;20.90;99.90;;;;;;5031220;28;20030;-85
2023/08/13 08:54:38;;;;;;;9.82;5.97;;;20.90;99.90;;;;;;5030457;28;20027;-84
2023/08/13 08:57:05;;;;;;;11.68;6.22;;;20.90;99.90;;;;;;5020815;28;20515;-86
2023/08/13 08:59:30;;;;;;;9.52;5.53;;;20.90;99.90;;;;;;5027846;28;20065;-85
2023/08/13 09:01:56;;;;;;;11.65;5.50;;;20.90;99.90;;;;;;5013961;28;20092;-85
2023/08/13 09:04:22;;;;;;;7.88;5.25;;;20.90;99.90;;;;;;5028841;28;20061;-86
2023/08/13 09:07:01;;;;;;;6.75;4.70;;;20.90;99.90;;;;;;5006447;28;20014;-86
2023/08/13 09:09:27;;;;;;;8.80;5.30;;;20.90;99.90;;;;;;5013652;28;20017;-86
2023/08/13 09:11:54;;;;;;;7.05;4.78;;;20.90;99.90;;;;;;5029155;28;20029;-85
2023/08/13 09:14:21;;;;;;;7.43;3.88;;;20.90;99.90;;;;;;5031415;28;20049;-86
2023/08/13 09:16:48;;;;;;;6.63;3.75;;;20.90;99.90;;;;;;5031823;28;20108;-86
2023/08/13 09:19:15;;;;;;;10.57;3.67;;;20.90;99.90;;;;;;5009488;28;20041;-87
2023/08/13 09:21:50;;;;;;;8.68;4.15;;;20.90;99.90;;;;;;5028935;28;20045;-84
2023/08/13 09:24:16;;;;;;;8.25;4.55;;;20.90;99.90;;;;;;5028454;28;20029;-86
2023/08/13 09:26:41;;;;;;;13.38;4.25;;;20.90;99.90;;;;;;5011062;28;20501;-85
2023/08/13 09:29:07;;;;;;;7.53;4.25;;;20.90;99.90;;;;;;5016158;28;20025;-85
2023/08/13 09:31:33;;;;;;;9.52;4.70;;;21.00;99.90;;;;;;5031337;28;20344;-83
2023/08/13 09:33:59;;;;;;;15.00;4.43;;;21.00;99.90;;;;;;5031801;28;20033;-83
2023/08/13 09:36:25;;;;;;;7.97;4.63;;;20.90;99.90;;;;;;5034925;28;20036;-85
2023/08/13 09:38:52;;;;;;;7.85;3.88;;;21.00;99.90;;;;;;5016164;28;20030;-82
2023/08/13 09:41:19;;;;;;;9.18;3.63;;;21.00;99.90;;;;;;5032756;28;20486;-84
2023/08/13 09:43:47;;;;;;;5.63;3.75;;;21.00;99.90;;;;;;5032306;28;20493;-84
2023/08/13 09:46:17;;;;;;;7.75;3.85;;;21.10;99.90;;;;;;5032125;28;20068;-85
2023/08/13 09:48:43;;;;;;;9.35;3.75;;;21.00;99.90;;;;;;5032520;28;20029;-84
2023/08/13 09:51:11;;;;;;;7.03;3.83;;;21.10;99.90;;;;;;5032880;28;20445;-85
2023/08/13 09:53:37;;;;;;;7.18;4.10;;;21.10;99.90;;;;;;5031278;28;20177;-83
2023/08/13 09:56:03;;;;;;;13.98;4.00;;;21.10;99.90;;;;;;5032024;28;20021;-85
2023/08/13 09:58:30;;;;;;;10.25;3.90;;;21.10;99.90;;;;;;5016806;28;20029;-86
2023/08/13 10:00:56;;;;;;;5.93;3.70;;;21.10;99.90;;;;;;5032261;28;20092;-82
2023/08/13 10:03:22;;;;;;;6.03;3.65;;;21.20;99.90;;;;;;5025390;28;20091;-84
2023/08/13 10:05:48;;;;;;;11.23;3.75;;;21.20;99.90;;;;;;5004944;28;20037;-84
2023/08/13 10:08:15;;;;;;;4.15;3.40;;;21.20;99.90;;;;;;5011223;28;20032;-83
2023/08/13 10:10:41;;;;;;;8.48;4.22;;;21.20;99.90;;;;;;5029889;28;20025;-84
2023/08/13 10:13:07;;;;;;;10.02;3.47;;;21.20;99.90;;;;;;5030139;28;20018;-83
2023/08/13 10:15:34;;;;;;;4.30;3.00;;;21.20;99.90;;;;;;5044527;28;20040;-84
2023/08/13 10:18:01;;;;;;;8.55;4.05;;;21.20;99.90;;;;;;5029034;28;20069;-83
2023/08/13 10:20:27;;;;;;;6.47;3.47;;;21.30;99.90;;;;;;5028759;28;20032;-84
2023/08/13 10:22:53;;;;;;;5.80;3.70;;;21.30;99.90;;;;;;5029267;28;20021;-85
2023/08/13 10:25:45;;;;;;;8.35;3.15;;;21.40;99.90;;;;;;5030469;28;20017;-86
2023/08/13 10:28:27;;;;;;;5.85;3.72;;;21.40;99.90;;;;;;5026024;28;20445;-86
2023/08/13 10:31:19;;;;;;;3.80;3.10;;;21.30;99.90;;;;;;5030707;28;20017;-84
2023/08/13 10:33:44;;;;;;;9.18;3.95;;;21.30;99.90;;;;;;5029638;28;20022;-85
2023/08/13 10:36:10;;;;;;;8.98;4.38;;;21.30;99.90;;;;;;5033477;28;20045;-85
2023/08/13 10:38:38;;;;;;;4.53;3.03;;;21.40;99.90;;;;;;5013047;28;20025;-83
2023/08/13 10:41:06;;;;;;;9.25;3.85;;;21.40;99.90;;;;;;5030903;28;20018;-84
2023/08/13 10:43:33;;;;;;;7.18;3.90;;;21.40;99.90;;;;;;5013633;28;20045;-85
2023/08/13 10:45:59;;;;;;;7.63;3.47;;;21.40;99.90;;;;;;5030419;28;20104;-84
2023/08/13 10:48:30;;;;;;;11.82;4.55;;;21.40;99.90;;;;;;5031024;28;20049;-86
2023/08/13 10:50:57;;;;;;;6.18;3.70;;;21.40;99.90;;;;;;5031190;28;20456;-85
2023/08/13 10:53:26;;;;;;;7.35;4.32;;;21.50;99.90;;;;;;5031932;28;20029;-86
2023/08/13 10:55:53;;;;;;;5.28;3.70;;;21.50;99.90;;;;;;5025925;28;20025;-86
2023/08/13 10:58:26;;;;;;;10.45;4.20;;;21.60;99.90;;;;;;5030010;28;20112;-87
2023/08/13 11:01:04;;;;;;;12.77;4.55;;;21.50;99.90;;;;;;5046591;28;20136;-86
2023/08/13 11:03:31;;;;;;;6.80;3.92;;;21.50;99.90;;;;;;5028604;28;20022;-86
2023/08/13 11:05:57;;;;;;;8.45;3.75;;;21.60;99.90;;;;;;5027601;28;20034;-85
2023/08/13 11:08:24;;;;;;;4.95;3.60;;;21.60;99.90;;;;;;5013633;28;20053;-86
2023/08/13 11:10:51;;;;;;;5.18;3.40;;;21.70;99.90;;;;;;5036455;28;20101;-85
2023/08/13 11:13:18;;;;;;;5.63;3.92;;;21.70;99.90;;;;;;5032059;28;20029;-88
2023/08/13 11:15:52;;;;;;;7.30;4.40;;;21.70;99.90;;;;;;5031487;28;20049;-86
2023/08/13 11:18:18;;;;;;;6.35;3.88;;;21.70;99.90;;;;;;5029110;28;20037;-87
2023/08/13 11:20:45;;;;;;;7.57;3.72;;;21.70;99.90;;;;;;5032918;28;20029;-85
2023/08/13 11:23:12;;;;;;;10.65;3.72;;;21.70;99.90;;;;;;5028794;28;20088;-87
2023/08/13 11:25:38;;;;;;;9.35;3.85;;;21.60;99.90;;;;;;5029574;28;20017;-84
2023/08/13 11:28:04;;;;;;;7.55;3.72;;;21.70;99.90;;;;;;5008014;28;20022;-86
2023/08/13 11:30:30;;;;;;;4.95;3.35;;;21.70;99.90;;;;;;5028736;28;20438;-85
2023/08/13 11:32:55;;;;;;;6.13;3.55;;;21.70;99.90;;;;;;5028571;28;20087;-86
2023/08/13 11:35:21;;;;;;;6.63;3.42;;;21.70;99.90;;;;;;5023973;28;20063;-84
2023/08/13 11:37:47;;;;;;;11.10;3.40;;;21.80;99.90;;;;;;5014411;28;20088;-86
2023/08/13 11:40:13;;;;;;;6.28;3.25;;;21.90;99.90;;;;;;5032542;28;20021;-85
2023/08/13 11:42:59;;;;;;;5.63;3.78;;;21.90;99.90;;;;;;5029584;28;20025;-85
2023/08/13 11:45:27;;;;;;;4.45;3.58;;;21.80;99.90;;;;;;5034712;28;20084;-86
2023/08/13 11:48:17;;;;;;;7.20;4.28;;;21.90;99.90;;;;;;5031425;28;20381;-85
2023/08/13 11:51:15;;;;;;;10.23;4.10;;;21.90;99.90;;;;;;5032683;28;20025;-85
2023/08/13 11:53:45;;;;;;;15.18;3.88;;;21.90;99.90;;;;;;5031234;28;20029;-85
2023/08/13 11:56:12;;;;;;;5.93;3.88;;;22.00;99.90;;;;;;5032490;28;20456;-86
2023/08/13 11:58:38;;;;;;;7.78;4.18;;;22.00;99.90;;;;;;5014144;28;20029;-86
2023/08/13 12:01:04;;;;;;;8.15;4.75;;;21.90;99.90;;;;;;5009002;28;20414;-84
2023/08/13 12:03:41;;;;;;;8.20;3.72;;;21.90;99.90;;;;;;5030921;28;20067;-85
2023/08/13 12:06:12;;;;;;;10.57;3.97;;;21.90;99.90;;;;;;5033371;28;20388;-84
2023/08/13 12:08:43;;;;;;;6.28;3.75;;;21.90;99.90;;;;;;5034005;28;20029;-85
2023/08/13 12:11:08;;;;;;;7.22;3.83;;;22.00;99.90;;;;;;5034283;28;20025;-84
2023/08/13 12:13:41;;;;;;;6.65;3.05;;;22.10;99.90;;;;;;5038433;28;20071;-86
2023/08/13 12:16:06;;;;;;;8.77;3.65;;;22.20;99.90;;;;;;5036311;28;20405;-86
2023/08/13 12:18:32;;;;;;;9.90;3.75;;;22.20;99.90;;;;;;5038739;28;20039;-86
2023/08/13 12:20:57;;;;;;;4.72;3.53;;;22.10;99.90;;;;;;5035911;28;20780;-87
2023/08/13 12:23:23;;;;;;;8.23;3.67;;;22.10;99.90;;;;;;5035355;28;20029;-88
2023/08/13 12:25:49;;;;;;;5.43;3.47;;;22.10;99.90;;;;;;5017418;28;20028;-86
2023/08/13 12:28:14;;;;;;;9.02;3.35;;;22.00;99.90;;;;;;5031880;28;20045;-86
2023/08/13 12:30:40;;;;;;;5.07;3.85;;;22.00;99.90;;;;;;5020483;28;20108;-86
2023/08/13 12:33:05;;;;;;;9.25;4.13;;;22.00;99.90;;;;;;5034277;28;20033;-87
2023/08/13 12:35:31;;;;;;;11.65;3.85;;;22.00;99.90;;;;;;5036675;28;20033;-88
2023/08/13 12:37:56;;;;;;;6.50;3.92;;;22.00;99.90;;;;;;5039241;28;20053;-87
2023/08/13 12:40:22;;;;;;;10.88;3.80;;;22.00;99.90;;;;;;5037184;28;20037;-85
2023/08/13 12:42:48;;;;;;;5.75;3.45;;;22.00;99.90;;;;;;5036189;28;20053;-87
2023/08/13 12:45:13;;;;;;;8.35;4.13;;;21.90;99.90;;;;;;5036357;28;20056;-87
2023/08/13 12:47:39;;;;;;;8.93;4.50;;;21.90;99.90;;;;;;5034095;28;20032;-88
2023/08/13 12:50:08;;;;;;;5.97;3.40;;;21.90;99.90;;;;;;5038968;28;20013;-85
2023/08/13 12:52:34;;;;;;;4.32;3.50;;;21.90;99.90;;;;;;5034626;28;20579;-89
2023/08/13 12:55:00;;;;;;;4.38;3.40;;;21.90;99.90;;;;;;5032243;28;20025;-87
2023/08/13 12:57:25;;;;;;;4.32;3.10;;;21.90;99.90;;;;;;5030751;28;20035;-96
2023/08/13 12:59:51;;;;;;;7.70;2.95;;;21.90;99.90;;;;;;5014077;28;20136;-88
2023/08/13 13:02:17;;;;;;;10.15;3.60;;;21.90;99.90;;;;;;5005008;28;20033;-86
2023/08/13 13:04:43;;;;;;;5.35;3.20;;;21.90;99.90;;;;;;5029606;28;20728;-86
2023/08/13 13:07:08;;;;;;;11.48;3.92;;;21.90;99.90;;;;;;5030043;28;20017;-86
2023/08/13 13:09:34;;;;;;;11.15;4.38;;;21.90;99.90;;;;;;5030776;28;20103;-94
2023/08/13 13:11:59;;;;;;;11.70;4.20;;;21.90;99.90;;;;;;5016926;28;20044;-96
2023/08/13 13:14:25;;;;;;;7.32;3.28;;;21.90;99.90;;;;;;5018719;28;20227;-96
2023/08/13 13:16:50;;;;;;;5.57;3.63;;;21.80;99.90;;;;;;5034185;28;20026;-96
2023/08/13 13:19:17;;;;;;;7.70;4.13;;;21.70;99.90;;;;;;5011909;28;20037;-94
2023/08/13 13:21:43;;;;;;;14.27;3.72;;;21.70;99.90;;;;;;5020786;28;20087;-95
2023/08/13 13:24:15;;;;;;;5.22;3.78;;;21.60;99.90;;;;;;5038004;28;20030;-96
2023/08/13 13:26:40;;;;;;;11.68;3.53;;;21.60;99.90;;;;;;5032883;28;20028;-91
2023/08/13 13:29:06;;;;;;;7.15;4.35;;;21.60;99.90;;;;;;5010349;28;20025;-89
2023/08/13 13:31:32;;;;;;;7.85;4.22;;;21.60;99.90;;;;;;5015275;28;20060;-94
2023/08/13 13:33:57;;;;;;;8.48;4.22;;;21.60;99.90;;;;;;5032209;28;20030;-95
2023/08/13 13:36:23;;;;;;;10.73;4.10;;;21.50;99.90;;;;;;5033002;28;20021;-92
2023/08/13 13:38:48;;;;;;;6.63;3.17;;;21.50;99.90;;;;;;5031673;28;20030;-96
2023/08/13 13:41:14;;;;;;;5.97;3.35;;;21.50;99.90;;;;;;5033075;28;20029;-96
2023/08/13 13:43:40;;;;;;;6.15;2.97;;;21.50;99.90;;;;;;5033910;28;20029;-95
2023/08/13 13:46:06;;;;;;;3.78;2.65;;;21.50;99.90;;;;;;5031708;28;20033;-92
2023/08/13 13:48:31;;;;;;;4.15;2.30;;;21.50;99.90;;;;;;5008824;28;20026;-93
2023/08/13 13:50:57;;;;;;;4.65;2.33;;;21.50;99.90;;;;;;5030495;28;20026;-91
2023/08/13 13:53:22;;;;;;;7.28;1.98;;;21.50;99.90;;;;;;5009304;28;20025;-94
2023/08/13 13:55:49;;;;;;;3.67;2.38;;;21.50;99.90;;;;;;5031888;28;20040;-90
2023/08/13 13:58:14;;;;;;;3.13;2.05;;;21.50;99.90;;;;;;5012936;28;20029;-95
2023/08/13 14:00:40;;;;;;;6.25;2.50;;;21.50;99.90;;;;;;5002004;28;20033;-95
2023/08/13 14:03:05;;;;;;;4.03;2.85;;;21.40;99.90;;;;;;5014851;28;20088;-95
2023/08/13 14:05:31;;;;;;;7.07;2.90;;;21.40;99.90;;;;;;5008809;28;20018;-93
2023/08/13 14:07:57;;;;;;;7.60;3.42;;;21.40;99.90;;;;;;5030431;28;20025;-95
2023/08/13 14:10:24;;;;;;;5.72;2.90;;;21.40;99.90;;;;;;5003659;28;20094;-95
2023/08/13 14:12:50;;;;;;;8.35;3.85;;;21.40;99.90;;;;;;5008040;28;20018;-96
2023/08/13 14:15:15;;;;;;;9.27;4.38;;;21.40;99.90;;;;;;5030576;28;20049;-93
2023/08/13 14:17:41;;;;;;;5.65;3.65;;;21.40;99.90;;;;;;5032694;28;20458;-95
2023/08/13 14:20:10;;;;;;;5.72;3.33;;;21.40;99.90;;;;;;5030797;28;20391;-94
2023/08/13 14:22:36;;;;;;;13.60;4.57;;;21.40;99.90;;;;;;5000932;28;20029;-92
2023/08/13 14:25:01;;;;;;;6.00;3.17;;;21.40;99.90;;;;;;5013944;28;20125;-94
2023/08/13 14:27:27;;;;;;;7.35;2.60;;;21.30;99.90;;;;;;5008534;28;20461;-93
2023/08/13 14:29:52;;;;;;;5.88;3.20;;;21.30;99.90;;;;;;5030639;28;20074;-94
2023/08/13 14:32:22;;;;;;;5.70;2.90;;;21.30;99.90;;;;;;5029736;28;20610;-92
2023/08/13 14:34:50;;;;;;;8.18;3.10;;;21.30;99.90;;;;;;5027452;28;20108;-92
2023/08/13 14:37:16;;;;;;;6.13;2.90;;;21.30;99.90;;;;;;5029854;28;20038;-94
2023/08/13 14:39:42;;;;;;;5.60;3.30;;;21.30;99.90;;;;;;5030724;28;20386;-95
2023/08/13 14:42:07;;;;;;;6.05;3.20;;;21.30;99.90;;;;;;5030223;28;20036;-95
2023/08/13 14:44:33;;;;;;;7.70;3.83;;;21.30;99.90;;;;;;5031000;28;20029;-93
2023/08/13 14:46:58;;;;;;;7.85;3.50;;;21.30;99.90;;;;;;5031784;28;20022;-94
2023/08/13 14:49:24;;;;;;;4.95;3.25;;;21.30;99.90;;;;;;5015110;28;20045;-94
2023/08/13 14:51:50;;;;;;;8.75;3.70;;;21.30;99.90;;;;;;5033562;28;20021;-95
2023/08/13 14:54:15;;;;;;;7.88;4.13;;;21.30;99.90;;;;;;5015397;28;20022;-94
2023/08/13 14:56:41;;;;;;;5.68;4.00;;;21.30;99.90;;;;;;5032084;28;20493;-91
2023/08/13 14:59:06;;;;;;;8.05;4.30;;;21.30;99.90;;;;;;5014528;28;20055;-93
2023/08/13 15:01:32;;;;;;;10.20;4.60;;;21.30;99.90;;;;;;5030935;28;20024;-93
2023/08/13 15:03:58;;;;;;;13.77;5.35;;;21.30;99.90;;;;;;5031432;28;20029;-95
2023/08/13 15:06:23;;;;;;;15.30;5.15;;;21.30;99.90;;;;;;5031326;28;20084;-94
2023/08/13 15:08:49;;;;;;;12.30;4.72;;;21.30;99.90;;;;;;5033648;28;20496;-95
2023/08/13 15:11:15;;;;;;;7.95;4.63;;;21.30;99.90;;;;;;5014393;28;20088;-93
2023/08/13 15:13:40;;;;;;;8.68;4.60;;;21.30;99.90;;;;;;5030754;28;20537;-93
2023/08/13 15:16:06;;;;;;;11.95;5.30;;;21.30;99.90;;;;;;5030421;28;20057;-93
2023/08/13 15:18:32;;;;;;;10.05;4.65;;;21.30;99.90;;;;;;5032246;28;20142;-93
2023/08/13 15:20:58;;;;;;;11.80;4.70;;;21.30;99.90;;;;;;5035046;28;20037;-94
2023/08/13 15:23:23;;;;;;;7.78;4.28;;;21.30;99.90;;;;;;5015270;28;20037;-94
2023/08/13 15:25:49;;;;;;;5.25;4.07;;;21.30;99.90;;;;;;5027822;28;20108;-94
2023/08/13 15:28:14;;;;;;;16.45;4.65;;;21.30;99.90;;;;;;5028935;28;20107;-95
2023/08/13 15:30:40;;;;;;;11.52;4.72;;;21.30;99.90;;;;;;5010541;28;20022;-95
2023/08/13 15:33:06;;;;;;;21.58;5.18;;;21.20;99.90;;;;;;5032558;28;20442;-96
2023/08/13 15:35:52;;;;;;;8.88;5.20;;;21.30;99.90;;;;;;5014247;28;20044;-96
2023/08/13 15:38:18;;;;;;;8.38;5.10;;;21.20;99.90;;;;;;5012792;28;20025;-96
2023/08/13 15:40:44;;;;;;;8.43;5.07;;;21.20;99.90;;;;;;5012046;28;20394;-96
2023/08/13 15:43:10;;;;;;;8.30;4.38;;;21.20;99.90;;;;;;5031612;28;20037;-95
2023/08/13 15:45:36;;;;;;;9.77;5.22;;;21.20;99.90;;;;;;5012499;28;20026;-95
2023/08/13 15:48:01;;;;;;;12.35;4.82;;;21.20;99.90;;;;;;5032062;28;20112;-93
2023/08/13 15:50:27;;;;;;;13.95;6.07;;;21.20;99.90;;;;;;5015356;28;20018;-94
2023/08/13 15:52:53;;;;;;;14.85;5.88;;;21.20;99.90;;;;;;5032533;28;20061;-95
2023/08/13 15:55:19;;;;;;;12.85;5.45;;;21.20;99.90;;;;;;5031671;28;20017;-95
2023/08/13 15:57:45;;;;;;;10.02;5.30;;;21.20;99.90;;;;;;5031001;28;20358;-94
2023/08/13 16:00:12;;;;;;;15.07;6.25;;;21.20;99.90;;;;;;5031528;28;20057;-95
2023/08/13 16:02:40;;;;;;;6.55;4.68;;;21.20;99.90;;;;;;5009204;28;20021;-96
2023/08/13 16:05:06;;;;;;;12.65;4.60;;;21.20;99.90;;;;;;5034153;28;20454;-96
2023/08/13 16:07:31;;;;;;;12.88;5.47;;;21.20;99.90;;;;;;5018903;28;20022;-96
2023/08/13 16:09:57;;;;;;;17.30;7.18;;;21.20;99.90;;;;;;5031083;28;20787;-96
2023/08/13 16:12:22;;;;;;;9.02;5.50;;;21.20;99.90;;;;;;5010757;28;20140;-96
2023/08/13 16:14:48;;;;;;;13.25;6.68;;;21.20;99.90;;;;;;5030999;28;20053;-96
2023/08/13 16:17:14;;;;;;;7.50;5.72;;;21.20;99.90;;;;;;5006996;28;20097;-95
2023/08/13 16:19:39;;;;;;;8.85;5.88;;;21.20;99.90;;;;;;5010937;28;20036;-96
2023/08/13 16:22:05;;;;;;;13.57;5.68;;;21.20;99.90;;;;;;5016890;28;20060;-96
2023/08/13 16:24:30;;;;;;;11.10;6.20;;;21.20;99.90;;;;;;5035412;28;20097;-95
2023/08/13 16:26:56;;;;;;;12.68;5.95;;;21.20;99.90;;;;;;5035376;28;20032;-96
2023/08/13 16:29:22;;;;;;;12.73;5.75;;;21.20;99.90;;;;;;5010748;28;20032;-96
2023/08/13 16:31:47;;;;;;;11.15;5.38;;;21.20;99.90;;;;;;5016499;28;20059;-96
2023/08/13 16:34:13;;;;;;;11.90;5.03;;;21.20;99.90;;;;;;5036507;28;20113;-92
2023/08/13 16:36:39;;;;;;;10.05;5.63;;;21.20;99.90;;;;;;5015816;28;20071;-96
2023/08/13 16:39:05;;;;;;;12.45;5.72;;;21.20;99.90;;;;;;5035547;28;20029;-96
2023/08/13 16:41:40;;;;;;;11.93;4.95;;;21.20;99.90;;;;;;5026646;28;20029;-96
2023/08/13 16:47:42;;;;;;;;;;;;;;;;;;;;;
2023/08/13 17:00:58;;;;;;;16.30;5.75;;;21.20;99.90;;;;;;4915943;29;20040;-96
2023/08/13 17:03:23;;;;;;;14.35;5.80;;;21.10;99.90;;;;;;4900779;29;20052;-95
2023/08/13 17:05:52;;;;;;;10.57;5.70;;;21.20;99.90;;;;;;4899889;29;20035;-96
2023/08/13 17:08:18;;;;;;;10.95;5.18;;;21.20;99.90;;;;;;4897487;29;20060;-96
2023/08/13 17:10:52;;;;;;;12.65;5.45;;;21.10;99.90;;;;;;4900691;29;20067;-96
2023/08/13 17:13:18;;;;;;;7.22;4.75;;;21.20;99.90;;;;;;4898142;29;20075;-94
2023/08/13 17:15:44;;;;;;;7.47;5.28;;;21.20;99.90;;;;;;4907740;29;20565;-96
2023/08/13 17:18:13;;;;;;;15.60;5.75;;;21.20;99.90;;;;;;4900877;29;20048;-96
2023/08/13 17:20:42;;;;;;;9.98;6.85;;;21.20;99.90;;;;;;4905496;29;20040;-96
2023/08/13 17:23:16;;;;;;;13.02;5.65;;;21.10;99.90;;;;;;4899297;29;20040;-96
2023/08/13 17:25:49;;;;;;;8.27;5.60;;;21.10;99.90;;;;;;4882349;29;20088;-93
2023/08/13 17:28:20;;;;;;;11.77;5.60;;;21.10;99.90;;;;;;4899500;29;20025;-96
2023/08/13 17:30:46;;;;;;;10.75;5.78;;;21.10;99.90;;;;;;4893154;29;20036;-93
2023/08/13 17:33:14;;;;;;;18.17;5.22;;;21.10;99.90;;;;;;4917125;29;20035;-93
2023/08/13 17:35:40;;;;;;;10.43;5.50;;;21.10;99.90;;;;;;4957938;28;20154;-95
2023/08/13 17:38:06;;;;;;;9.65;6.18;;;21.10;99.90;;;;;;5020516;28;20081;-95
2023/08/13 17:40:32;;;;;;;12.43;5.72;;;21.10;99.90;;;;;;5032254;28;20045;-95
2023/08/13 17:42:57;;;;;;;12.57;6.50;;;21.10;99.90;;;;;;5015272;28;20044;-95
2023/08/13 17:45:28;;;;;;;9.73;5.43;;;21.10;99.90;;;;;;5016618;28;20164;-91
2023/08/13 17:47:54;;;;;;;9.23;5.13;;;21.10;99.90;;;;;;5031984;28;20025;-96
2023/08/13 17:50:19;;;;;;;11.38;6.35;;;21.10;99.90;;;;;;5031020;28;20024;-92
2023/08/13 17:52:52;;;;;;;9.35;5.78;;;21.10;99.90;;;;;;5030345;28;20030;-96
2023/08/13 17:55:25;;;;;;;10.80;5.82;;;21.10;99.90;;;;;;5030769;28;20456;-95
2023/08/13 17:57:57;;;;;;;19.85;5.95;;;21.10;99.90;;;;;;5031133;28;20033;-93
2023/08/13 18:00:25;;;;;;;15.10;5.82;;;21.10;99.90;;;;;;5020395;28;20049;-95
2023/08/13 18:02:51;;;;;;;10.63;5.90;;;21.10;99.90;;;;;;5008586;28;20025;-94
2023/08/13 18:05:16;;;;;;;10.95;6.10;;;21.10;99.90;;;;;;5030130;28;20028;-95
2023/08/13 18:07:42;;;;;;;10.63;6.22;;;21.10;99.90;;;;;;5014255;28;20034;-95
2023/08/13 18:10:08;;;;;;;13.23;6.68;;;21.10;99.90;;;;;;5029125;28;20071;-95
2023/08/13 18:12:35;;;;;;;12.50;6.00;;;21.10;99.90;;;;;;5029091;28;20029;-92
2023/08/13 18:15:01;;;;;;;15.18;6.40;;;21.10;99.90;;;;;;5020455;28;20028;-95
2023/08/13 18:17:27;;;;;;;14.52;6.32;;;21.10;99.90;;;;;;5021267;28;20321;-93
2023/08/13 18:19:53;;;;;;;9.23;5.63;;;21.10;99.90;;;;;;5014294;28;20079;-96
2023/08/13 18:22:18;;;;;;;9.85;5.97;;;21.10;99.90;;;;;;5030774;28;20029;-95
2023/08/13 18:24:44;;;;;;;10.75;6.00;;;21.10;99.90;;;;;;5031990;28;20024;-95
2023/08/13 18:27:10;;;;;;;15.80;4.95;;;21.10;99.90;;;;;;5030489;28;20025;-94
2023/08/13 18:29:36;;;;;;;11.90;5.82;;;21.10;99.90;;;;;;5030205;28;20017;-96
2023/08/13 18:32:01;;;;;;;10.85;5.60;;;21.10;99.90;;;;;;5016564;28;20044;-94
2023/08/13 18:34:27;;;;;;;14.90;6.50;;;21.10;99.90;;;;;;5022321;28;20075;-94
2023/08/13 18:37:10;;;;;;;11.30;5.57;;;21.10;99.90;;;;;;5041171;28;20069;-96
2023/08/13 18:43:17;;;;;;;11.82;6.22;;;21.10;99.90;;;;;;5019382;28;20429;-95
2023/08/13 18:45:43;;;;;;;8.73;5.97;;;21.10;99.90;;;;;;5014513;28;20117;-95
2023/08/13 18:48:09;;;;;;;9.45;6.30;;;21.10;99.90;;;;;;5030363;28;20084;-95
2023/08/13 18:50:34;;;;;;;10.05;5.55;;;21.10;99.90;;;;;;5026929;28;20014;-95
2023/08/13 18:53:39;;;;;;;12.23;5.88;;;21.10;99.90;;;;;;5011958;28;20117;-96